Main page
METAR-TAF:

METAR-TAF

Airports :

Orr Regional Airport

Orr, Minnesota, United States

latitude: 48-01N, longitude: 092-52W, elevation: 397 m

Current weather observation

The report was made 21 minutes ago, at 17:53 UTC
Wind 4 kt from the North/Northwest
Temperature 13°C
Humidity 54%
Pressure 1011 hPa
Visibility: 16.1 km
Clear sky

METAR: KORB 231753Z AUTO 34004KT 10SM CLR 13/04 A2986 RMK AO2

Time: 13:14 (18:14 UTC)


TAF: missing

Weather observations and forecasts of more than 4000 airports (METAR and TAF reports).

The available stations are represented by yellow and red dots on the map.

Hover mouse over dot to see the name of the station.

Then click to see weather observations and forecasts.

To change the map : click on the green buttons with a black cross to zoom in, on the green button with a dash to zoom out, or on the green arrows for adjacent maps.


METAR-TAF: